sensor_id;sensor_type;location;lat;lon;timestamp;P1;durP1;ratioP1;P2;durP2;ratioP2
5981;SDS011;3018;48.730;9.336;2023-04-25T00:01:19;1.80;;;1.80;;
5981;SDS011;3018;48.730;9.336;2023-04-25T00:03:46;6.20;;;2.38;;
5981;SDS011;3018;48.730;9.336;2023-04-25T00:06:13;2.00;;;1.90;;
5981;SDS011;3018;48.730;9.336;2023-04-25T00:08:39;4.18;;;2.33;;
5981;SDS011;3018;48.730;9.336;2023-04-25T00:11:05;1.88;;;1.83;;
5981;SDS011;3018;48.730;9.336;2023-04-25T00:13:33;2.35;;;2.10;;
5981;SDS011;3018;48.730;9.336;2023-04-25T00:15:59;2.88;;;1.95;;
5981;SDS011;3018;48.730;9.336;2023-04-25T00:18:27;2.13;;;2.03;;
5981;SDS011;3018;48.730;9.336;2023-04-25T00:20:54;5.07;;;2.53;;
5981;SDS011;3018;48.730;9.336;2023-04-25T00:23:20;2.33;;;2.22;;
5981;SDS011;3018;48.730;9.336;2023-04-25T00:25:47;3.85;;;2.40;;
5981;SDS011;3018;48.730;9.336;2023-04-25T00:28:14;3.13;;;2.20;;
5981;SDS011;3018;48.730;9.336;2023-04-25T00:30:41;2.63;;;2.42;;
5981;SDS011;3018;48.730;9.336;2023-04-25T00:33:08;2.35;;;2.20;;
5981;SDS011;3018;48.730;9.336;2023-04-25T00:35:35;4.35;;;2.13;;
5981;SDS011;3018;48.730;9.336;2023-04-25T00:38:02;2.97;;;2.15;;
5981;SDS011;3018;48.730;9.336;2023-04-25T00:40:28;2.00;;;1.90;;
5981;SDS011;3018;48.730;9.336;2023-04-25T00:42:54;2.63;;;1.92;;
5981;SDS011;3018;48.730;9.336;2023-04-25T00:45:20;2.30;;;2.20;;
5981;SDS011;3018;48.730;9.336;2023-04-25T00:47:48;2.55;;;2.35;;
5981;SDS011;3018;48.730;9.336;2023-04-25T00:50:15;2.13;;;1.98;;
5981;SDS011;3018;48.730;9.336;2023-04-25T00:52:43;4.57;;;2.45;;
5981;SDS011;3018;48.730;9.336;2023-04-25T00:55:09;3.92;;;2.45;;
5981;SDS011;3018;48.730;9.336;2023-04-25T00:57:36;2.38;;;2.13;;
5981;SDS011;3018;48.730;9.336;2023-04-25T01:00:03;2.60;;;2.50;;
5981;SDS011;3018;48.730;9.336;2023-04-25T01:02:31;2.30;;;2.20;;
5981;SDS011;3018;48.730;9.336;2023-04-25T01:04:59;1.88;;;1.77;;
5981;SDS011;3018;48.730;9.336;2023-04-25T01:07:25;2.58;;;2.00;;
5981;SDS011;3018;48.730;9.336;2023-04-25T01:09:52;2.30;;;2.13;;
5981;SDS011;3018;48.730;9.336;2023-04-25T01:12:18;1.92;;;1.92;;
5981;SDS011;3018;48.730;9.336;2023-04-25T01:14:44;2.30;;;2.20;;
5981;SDS011;3018;48.730;9.336;2023-04-25T01:17:11;2.22;;;2.10;;
5981;SDS011;3018;48.730;9.336;2023-04-25T01:19:38;2.28;;;1.83;;
5981;SDS011;3018;48.730;9.336;2023-04-25T01:22:06;2.60;;;2.40;;
5981;SDS011;3018;48.730;9.336;2023-04-25T01:24:35;2.05;;;2.00;;
5981;SDS011;3018;48.730;9.336;2023-04-25T01:27:01;2.25;;;2.10;;
5981;SDS011;3018;48.730;9.336;2023-04-25T01:29:28;4.15;;;2.42;;
5981;SDS011;3018;48.730;9.336;2023-04-25T01:31:54;2.35;;;2.15;;
5981;SDS011;3018;48.730;9.336;2023-04-25T01:34:21;3.17;;;2.28;;
5981;SDS011;3018;48.730;9.336;2023-04-25T01:36:48;3.42;;;2.40;;
5981;SDS011;3018;48.730;9.336;2023-04-25T01:39:16;2.28;;;2.17;;
5981;SDS011;3018;48.730;9.336;2023-04-25T01:41:42;2.90;;;2.53;;
5981;SDS011;3018;48.730;9.336;2023-04-25T01:44:08;2.00;;;1.90;;
5981;SDS011;3018;48.730;9.336;2023-04-25T01:46:35;2.00;;;2.00;;
5981;SDS011;3018;48.730;9.336;2023-04-25T01:49:01;2.88;;;2.65;;
5981;SDS011;3018;48.730;9.336;2023-04-25T01:51:27;2.63;;;2.45;;
5981;SDS011;3018;48.730;9.336;2023-04-25T01:53:54;2.53;;;2.42;;
5981;SDS011;3018;48.730;9.336;2023-04-25T01:56:22;4.78;;;2.65;;
5981;SDS011;3018;48.730;9.336;2023-04-25T01:58:48;2.50;;;2.40;;
5981;SDS011;3018;48.730;9.336;2023-04-25T02:01:15;6.10;;;2.85;;
5981;SDS011;3018;48.730;9.336;2023-04-25T02:03:41;3.42;;;2.80;;
5981;SDS011;3018;48.730;9.336;2023-04-25T02:06:07;3.35;;;2.50;;
5981;SDS011;3018;48.730;9.336;2023-04-25T02:08:33;2.85;;;2.50;;
5981;SDS011;3018;48.730;9.336;2023-04-25T02:11:02;4.95;;;2.90;;
5981;SDS011;3018;48.730;9.336;2023-04-25T02:13:30;2.90;;;2.70;;
5981;SDS011;3018;48.730;9.336;2023-04-25T02:15:56;3.28;;;2.97;;
5981;SDS011;3018;48.730;9.336;2023-04-25T02:18:22;2.60;;;2.50;;
5981;SDS011;3018;48.730;9.336;2023-04-25T02:20:49;2.63;;;2.50;;
5981;SDS011;3018;48.730;9.336;2023-04-25T02:23:15;2.55;;;2.35;;
5981;SDS011;3018;48.730;9.336;2023-04-25T02:25:41;2.40;;;2.30;;
5981;SDS011;3018;48.730;9.336;2023-04-25T02:28:07;2.85;;;2.65;;
5981;SDS011;3018;48.730;9.336;2023-04-25T02:30:35;2.65;;;2.45;;
5981;SDS011;3018;48.730;9.336;2023-04-25T02:33:01;2.72;;;2.08;;
5981;SDS011;3018;48.730;9.336;2023-04-25T02:35:27;2.00;;;1.90;;
5981;SDS011;3018;48.730;9.336;2023-04-25T02:37:54;2.97;;;2.08;;
5981;SDS011;3018;48.730;9.336;2023-04-25T02:40:20;2.35;;;1.60;;
5981;SDS011;3018;48.730;9.336;2023-04-25T02:42:46;2.42;;;1.77;;
5981;SDS011;3018;48.730;9.336;2023-04-25T02:45:13;2.45;;;2.25;;
5981;SDS011;3018;48.730;9.336;2023-04-25T02:47:40;2.58;;;1.80;;
5981;SDS011;3018;48.730;9.336;2023-04-25T02:50:07;2.63;;;1.85;;
5981;SDS011;3018;48.730;9.336;2023-04-25T02:52:33;1.95;;;1.85;;
5981;SDS011;3018;48.730;9.336;2023-04-25T02:54:59;2.10;;;1.95;;
5981;SDS011;3018;48.730;9.336;2023-04-25T02:57:26;1.90;;;1.80;;
5981;SDS011;3018;48.730;9.336;2023-04-25T02:59:52;1.67;;;1.67;;
5981;SDS011;3018;48.730;9.336;2023-04-25T03:02:18;2.20;;;1.83;;
5981;SDS011;3018;48.730;9.336;2023-04-25T03:04:46;1.67;;;1.65;;
5981;SDS011;3018;48.730;9.336;2023-04-25T03:07:12;1.90;;;1.80;;
5981;SDS011;3018;48.730;9.336;2023-04-25T03:09:39;2.08;;;1.98;;
5981;SDS011;3018;48.730;9.336;2023-04-25T03:12:05;1.98;;;1.80;;
5981;SDS011;3018;48.730;9.336;2023-04-25T03:14:32;2.28;;;2.08;;
5981;SDS011;3018;48.730;9.336;2023-04-25T03:16:58;2.33;;;2.22;;
5981;SDS011;3018;48.730;9.336;2023-04-25T03:19:25;2.40;;;2.30;;
5981;SDS011;3018;48.730;9.336;2023-04-25T03:21:52;2.40;;;1.83;;
5981;SDS011;3018;48.730;9.336;2023-04-25T03:24:19;2.22;;;2.10;;
5981;SDS011;3018;48.730;9.336;2023-04-25T03:26:45;2.22;;;2.13;;
5981;SDS011;3018;48.730;9.336;2023-04-25T03:29:11;1.70;;;1.60;;
5981;SDS011;3018;48.730;9.336;2023-04-25T03:31:38;2.00;;;1.90;;
5981;SDS011;3018;48.730;9.336;2023-04-25T03:34:04;1.90;;;1.77;;
5981;SDS011;3018;48.730;9.336;2023-04-25T03:36:30;2.15;;;1.85;;
5981;SDS011;3018;48.730;9.336;2023-04-25T03:38:59;2.90;;;2.17;;
5981;SDS011;3018;48.730;9.336;2023-04-25T03:41:25;2.30;;;2.10;;
5981;SDS011;3018;48.730;9.336;2023-04-25T03:43:51;3.03;;;2.05;;
5981;SDS011;3018;48.730;9.336;2023-04-25T03:46:17;1.92;;;1.75;;
5981;SDS011;3018;48.730;9.336;2023-04-25T03:48:43;1.85;;;1.75;;
5981;SDS011;3018;48.730;9.336;2023-04-25T03:51:10;1.98;;;1.88;;
5981;SDS011;3018;48.730;9.336;2023-04-25T03:53:36;2.00;;;1.90;;
5981;SDS011;3018;48.730;9.336;2023-04-25T03:56:04;2.70;;;2.17;;
5981;SDS011;3018;48.730;9.336;2023-04-25T03:58:30;2.20;;;2.00;;
5981;SDS011;3018;48.730;9.336;2023-04-25T04:00:56;2.13;;;2.05;;
5981;SDS011;3018;48.730;9.336;2023-04-25T04:03:23;2.55;;;2.33;;
5981;SDS011;3018;48.730;9.336;2023-04-25T04:05:49;2.17;;;2.08;;
5981;SDS011;3018;48.730;9.336;2023-04-25T04:08:15;3.20;;;2.00;;
5981;SDS011;3018;48.730;9.336;2023-04-25T04:10:42;6.68;;;2.60;;
5981;SDS011;3018;48.730;9.336;2023-04-25T04:13:09;2.17;;;2.00;;
5981;SDS011;3018;48.730;9.336;2023-04-25T04:15:35;4.72;;;2.60;;
5981;SDS011;3018;48.730;9.336;2023-04-25T04:18:02;2.67;;;2.30;;
5981;SDS011;3018;48.730;9.336;2023-04-25T04:20:28;5.50;;;2.10;;
5981;SDS011;3018;48.730;9.336;2023-04-25T04:22:55;2.47;;;2.38;;
5981;SDS011;3018;48.730;9.336;2023-04-25T04:25:21;3.83;;;2.70;;
5981;SDS011;3018;48.730;9.336;2023-04-25T04:27:47;2.67;;;2.33;;
5981;SDS011;3018;48.730;9.336;2023-04-25T04:30:18;2.53;;;2.00;;
5981;SDS011;3018;48.730;9.336;2023-04-25T04:32:45;3.50;;;2.47;;
5981;SDS011;3018;48.730;9.336;2023-04-25T04:35:11;3.53;;;2.40;;
5981;SDS011;3018;48.730;9.336;2023-04-25T04:37:37;2.40;;;2.30;;
5981;SDS011;3018;48.730;9.336;2023-04-25T04:40:04;6.22;;;2.53;;
5981;SDS011;3018;48.730;9.336;2023-04-25T04:42:30;3.10;;;2.80;;
5981;SDS011;3018;48.730;9.336;2023-04-25T04:44:57;2.72;;;2.60;;
5981;SDS011;3018;48.730;9.336;2023-04-25T04:47:27;5.32;;;2.85;;
5981;SDS011;3018;48.730;9.336;2023-04-25T04:49:56;7.88;;;3.38;;
5981;SDS011;3018;48.730;9.336;2023-04-25T04:52:22;2.58;;;2.47;;
5981;SDS011;3018;48.730;9.336;2023-04-25T04:54:48;3.08;;;2.83;;
5981;SDS011;3018;48.730;9.336;2023-04-25T04:57:14;3.22;;;2.53;;
5981;SDS011;3018;48.730;9.336;2023-04-25T04:59:41;3.08;;;2.55;;
5981;SDS011;3018;48.730;9.336;2023-04-25T05:02:07;5.35;;;3.42;;
5981;SDS011;3018;48.730;9.336;2023-04-25T05:04:35;6.53;;;3.88;;
5981;SDS011;3018;48.730;9.336;2023-04-25T05:07:01;7.30;;;3.72;;
5981;SDS011;3018;48.730;9.336;2023-04-25T05:09:28;6.60;;;3.60;;
5981;SDS011;3018;48.730;9.336;2023-04-25T05:11:54;4.68;;;3.55;;
5981;SDS011;3018;48.730;9.336;2023-04-25T05:14:20;5.80;;;3.30;;
5981;SDS011;3018;48.730;9.336;2023-04-25T05:16:47;7.20;;;2.85;;
5981;SDS011;3018;48.730;9.336;2023-04-25T05:19:14;5.22;;;3.10;;
5981;SDS011;3018;48.730;9.336;2023-04-25T05:21:41;4.38;;;3.25;;
5981;SDS011;3018;48.730;9.336;2023-04-25T05:24:08;3.30;;;2.60;;
5981;SDS011;3018;48.730;9.336;2023-04-25T05:26:34;2.72;;;2.47;;
5981;SDS011;3018;48.730;9.336;2023-04-25T05:29:01;3.20;;;2.40;;
5981;SDS011;3018;48.730;9.336;2023-04-25T05:31:27;3.50;;;2.58;;
5981;SDS011;3018;48.730;9.336;2023-04-25T05:33:53;3.42;;;2.42;;
5981;SDS011;3018;48.730;9.336;2023-04-25T05:36:19;3.85;;;2.72;;
5981;SDS011;3018;48.730;9.336;2023-04-25T05:38:47;2.95;;;2.40;;
5981;SDS011;3018;48.730;9.336;2023-04-25T05:41:13;2.25;;;2.05;;
5981;SDS011;3018;48.730;9.336;2023-04-25T05:43:40;2.53;;;2.40;;
5981;SDS011;3018;48.730;9.336;2023-04-25T05:46:10;3.03;;;2.63;;
5981;SDS011;3018;48.730;9.336;2023-04-25T05:48:36;2.85;;;2.67;;
5981;SDS011;3018;48.730;9.336;2023-04-25T05:51:02;5.97;;;2.72;;
5981;SDS011;3018;48.730;9.336;2023-04-25T05:53:28;5.00;;;2.83;;
5981;SDS011;3018;48.730;9.336;2023-04-25T05:55:56;5.10;;;4.28;;
5981;SDS011;3018;48.730;9.336;2023-04-25T05:58:22;3.80;;;2.95;;
5981;SDS011;3018;48.730;9.336;2023-04-25T06:00:49;4.00;;;2.88;;
5981;SDS011;3018;48.730;9.336;2023-04-25T06:03:15;2.63;;;2.45;;
5981;SDS011;3018;48.730;9.336;2023-04-25T06:05:42;4.38;;;2.92;;
5981;SDS011;3018;48.730;9.336;2023-04-25T06:08:08;4.25;;;2.92;;
5981;SDS011;3018;48.730;9.336;2023-04-25T06:10:34;2.75;;;2.55;;
5981;SDS011;3018;48.730;9.336;2023-04-25T06:13:02;3.15;;;2.70;;
5981;SDS011;3018;48.730;9.336;2023-04-25T06:15:28;2.83;;;2.53;;
5981;SDS011;3018;48.730;9.336;2023-04-25T06:17:55;2.90;;;2.38;;
5981;SDS011;3018;48.730;9.336;2023-04-25T06:20:21;3.10;;;2.80;;
5981;SDS011;3018;48.730;9.336;2023-04-25T06:22:49;3.35;;;2.58;;
5981;SDS011;3018;48.730;9.336;2023-04-25T06:25:16;2.10;;;2.00;;
5981;SDS011;3018;48.730;9.336;2023-04-25T06:27:43;2.30;;;2.20;;
5981;SDS011;3018;48.730;9.336;2023-04-25T06:30:11;2.60;;;2.50;;
5981;SDS011;3018;48.730;9.336;2023-04-25T06:32:37;2.40;;;2.20;;
5981;SDS011;3018;48.730;9.336;2023-04-25T06:35:04;3.50;;;2.20;;
5981;SDS011;3018;48.730;9.336;2023-04-25T06:37:30;2.22;;;2.10;;
5981;SDS011;3018;48.730;9.336;2023-04-25T06:39:57;2.50;;;2.30;;
5981;SDS011;3018;48.730;9.336;2023-04-25T06:42:23;2.10;;;2.10;;
5981;SDS011;3018;48.730;9.336;2023-04-25T06:44:49;2.45;;;2.35;;
5981;SDS011;3018;48.730;9.336;2023-04-25T06:47:17;2.42;;;2.33;;
5981;SDS011;3018;48.730;9.336;2023-04-25T06:49:43;2.50;;;2.33;;
5981;SDS011;3018;48.730;9.336;2023-04-25T06:52:09;2.55;;;2.45;;
5981;SDS011;3018;48.730;9.336;2023-04-25T06:54:35;2.50;;;2.30;;
5981;SDS011;3018;48.730;9.336;2023-04-25T06:57:02;2.20;;;2.10;;
5981;SDS011;3018;48.730;9.336;2023-04-25T06:59:28;2.45;;;2.30;;
5981;SDS011;3018;48.730;9.336;2023-04-25T07:01:54;2.70;;;2.60;;
5981;SDS011;3018;48.730;9.336;2023-04-25T07:04:22;2.33;;;2.17;;
5981;SDS011;3018;48.730;9.336;2023-04-25T07:06:48;2.30;;;2.20;;
5981;SDS011;3018;48.730;9.336;2023-04-25T07:09:14;3.75;;;3.20;;
5981;SDS011;3018;48.730;9.336;2023-04-25T07:11:41;3.45;;;3.00;;
5981;SDS011;3018;48.730;9.336;2023-04-25T07:14:07;4.32;;;3.25;;
5981;SDS011;3018;48.730;9.336;2023-04-25T07:16:34;2.80;;;2.60;;
5981;SDS011;3018;48.730;9.336;2023-04-25T07:19:00;2.70;;;2.60;;
5981;SDS011;3018;48.730;9.336;2023-04-25T07:21:27;3.30;;;3.00;;
5981;SDS011;3018;48.730;9.336;2023-04-25T07:23:54;2.90;;;2.63;;
5981;SDS011;3018;48.730;9.336;2023-04-25T07:26:20;3.42;;;2.15;;
5981;SDS011;3018;48.730;9.336;2023-04-25T07:28:46;2.65;;;2.45;;
5981;SDS011;3018;48.730;9.336;2023-04-25T07:31:15;2.30;;;2.20;;
5981;SDS011;3018;48.730;9.336;2023-04-25T07:33:43;2.95;;;2.55;;
5981;SDS011;3018;48.730;9.336;2023-04-25T07:36:09;2.70;;;2.50;;
5981;SDS011;3018;48.730;9.336;2023-04-25T07:38:36;3.47;;;2.55;;
5981;SDS011;3018;48.730;9.336;2023-04-25T07:41:03;3.13;;;2.80;;
5981;SDS011;3018;48.730;9.336;2023-04-25T07:43:29;3.05;;;2.90;;
5981;SDS011;3018;48.730;9.336;2023-04-25T07:45:55;3.20;;;3.00;;
5981;SDS011;3018;48.730;9.336;2023-04-25T07:48:22;3.92;;;2.67;;
5981;SDS011;3018;48.730;9.336;2023-04-25T07:50:48;2.90;;;2.70;;
5981;SDS011;3018;48.730;9.336;2023-04-25T07:53:14;3.00;;;2.90;;
5981;SDS011;3018;48.730;9.336;2023-04-25T07:55:42;3.80;;;3.28;;
5981;SDS011;3018;48.730;9.336;2023-04-25T07:58:08;2.20;;;2.20;;
5981;SDS011;3018;48.730;9.336;2023-04-25T08:00:35;3.15;;;2.67;;
5981;SDS011;3018;48.730;9.336;2023-04-25T08:03:01;2.80;;;2.63;;
5981;SDS011;3018;48.730;9.336;2023-04-25T08:05:27;3.13;;;2.92;;
5981;SDS011;3018;48.730;9.336;2023-04-25T08:07:54;3.05;;;2.83;;
5981;SDS011;3018;48.730;9.336;2023-04-25T08:10:21;3.08;;;2.88;;
5981;SDS011;3018;48.730;9.336;2023-04-25T08:12:49;3.20;;;3.00;;
5981;SDS011;3018;48.730;9.336;2023-04-25T08:15:15;2.75;;;2.65;;
5981;SDS011;3018;48.730;9.336;2023-04-25T08:17:42;3.25;;;2.83;;
5981;SDS011;3018;48.730;9.336;2023-04-25T08:20:09;3.17;;;2.97;;
5981;SDS011;3018;48.730;9.336;2023-04-25T08:22:35;3.10;;;3.00;;
5981;SDS011;3018;48.730;9.336;2023-04-25T08:25:02;3.15;;;2.95;;
5981;SDS011;3018;48.730;9.336;2023-04-25T08:27:28;3.45;;;3.25;;
5981;SDS011;3018;48.730;9.336;2023-04-25T08:29:56;3.30;;;3.10;;
5981;SDS011;3018;48.730;9.336;2023-04-25T08:32:23;4.13;;;3.85;;
5981;SDS011;3018;48.730;9.336;2023-04-25T08:34:50;3.38;;;3.25;;
5981;SDS011;3018;48.730;9.336;2023-04-25T08:37:19;4.18;;;3.88;;
5981;SDS011;3018;48.730;9.336;2023-04-25T08:39:45;4.25;;;3.97;;
5981;SDS011;3018;48.730;9.336;2023-04-25T08:42:13;4.82;;;4.25;;
5981;SDS011;3018;48.730;9.336;2023-04-25T08:44:40;5.20;;;4.55;;
5981;SDS011;3018;48.730;9.336;2023-04-25T08:47:08;4.30;;;4.07;;
5981;SDS011;3018;48.730;9.336;2023-04-25T08:49:34;4.78;;;4.25;;
5981;SDS011;3018;48.730;9.336;2023-04-25T08:52:01;4.50;;;4.10;;
5981;SDS011;3018;48.730;9.336;2023-04-25T08:54:28;4.57;;;4.28;;
5981;SDS011;3018;48.730;9.336;2023-04-25T08:56:56;5.13;;;4.40;;
5981;SDS011;3018;48.730;9.336;2023-04-25T08:59:23;4.35;;;4.00;;
5981;SDS011;3018;48.730;9.336;2023-04-25T09:01:50;4.75;;;4.25;;
5981;SDS011;3018;48.730;9.336;2023-04-25T09:04:18;4.65;;;4.30;;
5981;SDS011;3018;48.730;9.336;2023-04-25T09:06:45;4.72;;;4.40;;
5981;SDS011;3018;48.730;9.336;2023-04-25T09:09:11;4.68;;;4.30;;
5981;SDS011;3018;48.730;9.336;2023-04-25T09:11:38;5.82;;;4.47;;
5981;SDS011;3018;48.730;9.336;2023-04-25T09:14:12;5.47;;;5.05;;
5981;SDS011;3018;48.730;9.336;2023-04-25T09:16:56;4.95;;;4.45;;
5981;SDS011;3018;48.730;9.336;2023-04-25T09:19:26;5.22;;;4.72;;
5981;SDS011;3018;48.730;9.336;2023-04-25T09:21:53;5.18;;;4.75;;
5981;SDS011;3018;48.730;9.336;2023-04-25T09:24:20;5.28;;;4.88;;
5981;SDS011;3018;48.730;9.336;2023-04-25T09:26:55;6.30;;;4.53;;
5981;SDS011;3018;48.730;9.336;2023-04-25T09:29:24;5.22;;;4.82;;
5981;SDS011;3018;48.730;9.336;2023-04-25T09:31:55;5.90;;;5.50;;
5981;SDS011;3018;48.730;9.336;2023-04-25T09:34:39;5.88;;;5.38;;
5981;SDS011;3018;48.730;9.336;2023-04-25T09:37:06;7.10;;;5.97;;
5981;SDS011;3018;48.730;9.336;2023-04-25T09:39:33;7.00;;;6.03;;
5981;SDS011;3018;48.730;9.336;2023-04-25T09:41:59;6.55;;;5.95;;
5981;SDS011;3018;48.730;9.336;2023-04-25T09:44:26;6.72;;;6.07;;
5981;SDS011;3018;48.730;9.336;2023-04-25T09:46:53;6.40;;;5.75;;
5981;SDS011;3018;48.730;9.336;2023-04-25T09:49:19;5.88;;;5.35;;
5981;SDS011;3018;48.730;9.336;2023-04-25T09:51:54;5.22;;;4.82;;
5981;SDS011;3018;48.730;9.336;2023-04-25T09:54:21;5.90;;;5.00;;
5981;SDS011;3018;48.730;9.336;2023-04-25T09:56:48;5.43;;;5.03;;
5981;SDS011;3018;48.730;9.336;2023-04-25T09:59:14;5.65;;;5.25;;
5981;SDS011;3018;48.730;9.336;2023-04-25T10:01:41;5.40;;;5.00;;
5981;SDS011;3018;48.730;9.336;2023-04-25T10:04:09;5.32;;;4.90;;
5981;SDS011;3018;48.730;9.336;2023-04-25T10:06:36;5.32;;;4.93;;
5981;SDS011;3018;48.730;9.336;2023-04-25T10:09:04;5.55;;;5.15;;
5981;SDS011;3018;48.730;9.336;2023-04-25T10:11:32;6.97;;;5.82;;
5981;SDS011;3018;48.730;9.336;2023-04-25T10:13:59;5.75;;;5.30;;
5981;SDS011;3018;48.730;9.336;2023-04-25T10:16:26;6.60;;;5.55;;
5981;SDS011;3018;48.730;9.336;2023-04-25T10:19:10;5.95;;;5.43;;
5981;SDS011;3018;48.730;9.336;2023-04-25T10:21:36;6.00;;;5.60;;
5981;SDS011;3018;48.730;9.336;2023-04-25T10:24:08;6.90;;;5.20;;
5981;SDS011;3018;48.730;9.336;2023-04-25T10:26:34;5.68;;;5.28;;
5981;SDS011;3018;48.730;9.336;2023-04-25T10:29:01;5.85;;;5.45;;
5981;SDS011;3018;48.730;9.336;2023-04-25T10:31:29;5.95;;;4.80;;
5981;SDS011;3018;48.730;9.336;2023-04-25T10:33:55;4.90;;;4.60;;
5981;SDS011;3018;48.730;9.336;2023-04-25T10:36:23;3.70;;;3.20;;
5981;SDS011;3018;48.730;9.336;2023-04-25T10:38:49;3.60;;;3.40;;
5981;SDS011;3018;48.730;9.336;2023-04-25T10:41:18;3.53;;;3.30;;
5981;SDS011;3018;48.730;9.336;2023-04-25T10:43:45;4.05;;;3.75;;
5981;SDS011;3018;48.730;9.336;2023-04-25T10:46:15;4.65;;;3.10;;
5981;SDS011;3018;48.730;9.336;2023-04-25T10:48:45;3.55;;;3.35;;
5981;SDS011;3018;48.730;9.336;2023-04-25T10:51:15;2.90;;;2.80;;
5981;SDS011;3018;48.730;9.336;2023-04-25T10:53:43;2.10;;;2.00;;
5981;SDS011;3018;48.730;9.336;2023-04-25T10:56:10;2.83;;;2.60;;
5981;SDS011;3018;48.730;9.336;2023-04-25T10:58:42;2.83;;;2.70;;
5981;SDS011;3018;48.730;9.336;2023-04-25T11:01:08;2.58;;;2.47;;
5981;SDS011;3018;48.730;9.336;2023-04-25T11:03:37;1.90;;;1.90;;
5981;SDS011;3018;48.730;9.336;2023-04-25T11:06:04;2.50;;;2.40;;
5981;SDS011;3018;48.730;9.336;2023-04-25T11:08:33;1.80;;;1.70;;
5981;SDS011;3018;48.730;9.336;2023-04-25T11:11:03;1.92;;;1.92;;
5981;SDS011;3018;48.730;9.336;2023-04-25T11:13:30;2.38;;;2.28;;
5981;SDS011;3018;48.730;9.336;2023-04-25T11:15:57;2.05;;;1.95;;
5981;SDS011;3018;48.730;9.336;2023-04-25T11:18:25;2.97;;;1.60;;
5981;SDS011;3018;48.730;9.336;2023-04-25T11:20:52;1.58;;;1.50;;
5981;SDS011;3018;48.730;9.336;2023-04-25T11:23:18;1.98;;;1.88;;
5981;SDS011;3018;48.730;9.336;2023-04-25T11:25:44;2.15;;;1.95;;
5981;SDS011;3018;48.730;9.336;2023-04-25T11:28:10;2.40;;;2.20;;
5981;SDS011;3018;48.730;9.336;2023-04-25T11:30:37;2.85;;;1.88;;
5981;SDS011;3018;48.730;9.336;2023-04-25T11:33:04;1.73;;;1.63;;
5981;SDS011;3018;48.730;9.336;2023-04-25T11:35:30;1.60;;;1.60;;
5981;SDS011;3018;48.730;9.336;2023-04-25T11:37:58;1.17;;;1.17;;
5981;SDS011;3018;48.730;9.336;2023-04-25T11:40:25;1.27;;;1.27;;
5981;SDS011;3018;48.730;9.336;2023-04-25T11:42:52;1.45;;;1.45;;
5981;SDS011;3018;48.730;9.336;2023-04-25T11:45:18;1.30;;;1.30;;
5981;SDS011;3018;48.730;9.336;2023-04-25T11:47:44;1.48;;;1.48;;
5981;SDS011;3018;48.730;9.336;2023-04-25T11:50:12;1.45;;;1.45;;
5981;SDS011;3018;48.730;9.336;2023-04-25T11:52:39;1.70;;;1.70;;
5981;SDS011;3018;48.730;9.336;2023-04-25T11:57:32;1.42;;;1.33;;
5981;SDS011;3018;48.730;9.336;2023-04-25T12:00:05;1.35;;;1.35;;
5981;SDS011;3018;48.730;9.336;2023-04-25T12:02:31;2.10;;;1.42;;
5981;SDS011;3018;48.730;9.336;2023-04-25T12:05:00;1.40;;;1.40;;
5981;SDS011;3018;48.730;9.336;2023-04-25T12:07:29;1.83;;;1.30;;
5981;SDS011;3018;48.730;9.336;2023-04-25T12:09:56;1.58;;;1.58;;
5981;SDS011;3018;48.730;9.336;2023-04-25T12:12:23;1.50;;;1.40;;
5981;SDS011;3018;48.730;9.336;2023-04-25T12:14:52;1.23;;;1.23;;
5981;SDS011;3018;48.730;9.336;2023-04-25T12:17:20;1.80;;;1.70;;
5981;SDS011;3018;48.730;9.336;2023-04-25T12:19:46;1.50;;;1.50;;
5981;SDS011;3018;48.730;9.336;2023-04-25T12:22:19;2.58;;;2.00;;
5981;SDS011;3018;48.730;9.336;2023-04-25T12:24:47;2.30;;;2.20;;
5981;SDS011;3018;48.730;9.336;2023-04-25T12:27:14;2.33;;;2.22;;
5981;SDS011;3018;48.730;9.336;2023-04-25T12:29:49;2.88;;;2.78;;
5981;SDS011;3018;48.730;9.336;2023-04-25T12:32:16;2.90;;;2.70;;
5981;SDS011;3018;48.730;9.336;2023-04-25T12:34:42;2.47;;;2.38;;
5981;SDS011;3018;48.730;9.336;2023-04-25T12:37:09;2.47;;;2.28;;
5981;SDS011;3018;48.730;9.336;2023-04-25T12:39:36;2.72;;;2.63;;
5981;SDS011;3018;48.730;9.336;2023-04-25T12:42:03;3.50;;;3.30;;
5981;SDS011;3018;48.730;9.336;2023-04-25T12:44:30;2.97;;;2.88;;
5981;SDS011;3018;48.730;9.336;2023-04-25T12:46:56;3.17;;;2.97;;
5981;SDS011;3018;48.730;9.336;2023-04-25T12:49:22;2.47;;;2.40;;
5981;SDS011;3018;48.730;9.336;2023-04-25T12:51:49;3.00;;;2.72;;
5981;SDS011;3018;48.730;9.336;2023-04-25T12:54:16;2.63;;;2.50;;
5981;SDS011;3018;48.730;9.336;2023-04-25T12:56:42;3.25;;;3.05;;
5981;SDS011;3018;48.730;9.336;2023-04-25T12:59:10;5.10;;;4.70;;
5981;SDS011;3018;48.730;9.336;2023-04-25T13:01:36;3.55;;;3.35;;
5981;SDS011;3018;48.730;9.336;2023-04-25T13:04:03;3.80;;;3.58;;
5981;SDS011;3018;48.730;9.336;2023-04-25T13:06:29;4.30;;;4.05;;
5981;SDS011;3018;48.730;9.336;2023-04-25T13:08:55;5.90;;;4.28;;
5981;SDS011;3018;48.730;9.336;2023-04-25T13:11:22;4.72;;;4.22;;
5981;SDS011;3018;48.730;9.336;2023-04-25T13:13:48;4.55;;;4.15;;
5981;SDS011;3018;48.730;9.336;2023-04-25T13:16:16;4.95;;;4.55;;
5981;SDS011;3018;48.730;9.336;2023-04-25T13:18:43;5.15;;;4.85;;
5981;SDS011;3018;48.730;9.336;2023-04-25T13:21:10;5.20;;;4.78;;
5981;SDS011;3018;48.730;9.336;2023-04-25T13:23:37;5.38;;;4.97;;
5981;SDS011;3018;48.730;9.336;2023-04-25T13:26:03;4.68;;;4.28;;
5981;SDS011;3018;48.730;9.336;2023-04-25T13:28:29;5.28;;;4.78;;
5981;SDS011;3018;48.730;9.336;2023-04-25T13:30:55;4.60;;;4.40;;
5981;SDS011;3018;48.730;9.336;2023-04-25T13:33:24;4.70;;;4.40;;
5981;SDS011;3018;48.730;9.336;2023-04-25T13:35:50;4.80;;;4.43;;
5981;SDS011;3018;48.730;9.336;2023-04-25T13:38:19;4.80;;;4.32;;
5981;SDS011;3018;48.730;9.336;2023-04-25T13:40:45;4.65;;;4.20;;
5981;SDS011;3018;48.730;9.336;2023-04-25T13:43:11;4.60;;;4.30;;
5981;SDS011;3018;48.730;9.336;2023-04-25T13:45:38;4.90;;;4.60;;
5981;SDS011;3018;48.730;9.336;2023-04-25T13:48:05;6.72;;;4.88;;
5981;SDS011;3018;48.730;9.336;2023-04-25T13:50:33;6.13;;;4.63;;
5981;SDS011;3018;48.730;9.336;2023-04-25T13:53:00;5.55;;;5.03;;
5981;SDS011;3018;48.730;9.336;2023-04-25T13:55:26;5.15;;;4.75;;
5981;SDS011;3018;48.730;9.336;2023-04-25T13:57:52;5.78;;;4.75;;
5981;SDS011;3018;48.730;9.336;2023-04-25T14:00:19;5.93;;;5.43;;
5981;SDS011;3018;48.730;9.336;2023-04-25T14:02:46;4.60;;;4.30;;
5981;SDS011;3018;48.730;9.336;2023-04-25T14:05:12;5.30;;;4.95;;
5981;SDS011;3018;48.730;9.336;2023-04-25T14:07:39;5.28;;;4.72;;
5981;SDS011;3018;48.730;9.336;2023-04-25T14:10:06;5.32;;;4.88;;
5981;SDS011;3018;48.730;9.336;2023-04-25T14:12:32;5.43;;;4.90;;
5981;SDS011;3018;48.730;9.336;2023-04-25T14:15:00;5.70;;;4.93;;
5981;SDS011;3018;48.730;9.336;2023-04-25T14:17:26;5.75;;;5.25;;
5981;SDS011;3018;48.730;9.336;2023-04-25T14:19:52;4.90;;;4.60;;
5981;SDS011;3018;48.730;9.336;2023-04-25T14:22:19;5.05;;;4.65;;
5981;SDS011;3018;48.730;9.336;2023-04-25T14:24:47;6.10;;;5.45;;
5981;SDS011;3018;48.730;9.336;2023-04-25T14:27:13;6.10;;;5.60;;
5981;SDS011;3018;48.730;9.336;2023-04-25T14:29:39;8.75;;;6.15;;
5981;SDS011;3018;48.730;9.336;2023-04-25T14:32:06;6.15;;;5.60;;
5981;SDS011;3018;48.730;9.336;2023-04-25T14:34:32;6.95;;;5.78;;
5981;SDS011;3018;48.730;9.336;2023-04-25T14:36:58;6.47;;;5.90;;
5981;SDS011;3018;48.730;9.336;2023-04-25T14:39:25;6.03;;;5.50;;
5981;SDS011;3018;48.730;9.336;2023-04-25T14:41:52;6.20;;;5.60;;
5981;SDS011;3018;48.730;9.336;2023-04-25T14:44:19;6.00;;;5.50;;
5981;SDS011;3018;48.730;9.336;2023-04-25T14:46:45;9.25;;;5.65;;
5981;SDS011;3018;48.730;9.336;2023-04-25T14:49:11;9.18;;;6.03;;
5981;SDS011;3018;48.730;9.336;2023-04-25T14:51:37;6.15;;;5.60;;
5981;SDS011;3018;48.730;9.336;2023-04-25T14:54:04;6.50;;;5.65;;
5981;SDS011;3018;48.730;9.336;2023-04-25T14:56:30;6.07;;;5.50;;
5981;SDS011;3018;48.730;9.336;2023-04-25T14:58:58;6.45;;;5.63;;
5981;SDS011;3018;48.730;9.336;2023-04-25T15:01:24;6.53;;;5.90;;
5981;SDS011;3018;48.730;9.336;2023-04-25T15:03:50;6.03;;;5.45;;
5981;SDS011;3018;48.730;9.336;2023-04-25T15:06:17;6.78;;;6.05;;
5981;SDS011;3018;48.730;9.336;2023-04-25T15:08:43;5.70;;;5.20;;
5981;SDS011;3018;48.730;9.336;2023-04-25T15:11:10;5.18;;;4.78;;
5981;SDS011;3018;48.730;9.336;2023-04-25T15:13:37;5.03;;;4.70;;
5981;SDS011;3018;48.730;9.336;2023-04-25T15:16:05;5.80;;;5.30;;